createdAt,value
2022-11-02T07:12:14.106Z,99086.16
2022-11-02T07:17:17.685Z,99082.81
2022-11-02T07:22:21.305Z,99075.44
2022-11-02T07:27:26.166Z,99082.34
2022-11-02T07:32:29.689Z,99074.91
2022-11-02T07:37:33.525Z,99089.94
2022-11-02T07:42:38.896Z,99067.16
2022-11-02T07:47:44.832Z,99038.88
2022-11-02T07:52:49.908Z,99051.16
2022-11-02T07:58:03.721Z,98931.56
2022-11-02T08:03:09.212Z,99092.69
2022-11-02T08:08:15.589Z,99033.28
2022-11-02T08:13:22.000Z,99074.34
2022-11-02T08:18:26.541Z,99015.28
2022-11-02T08:23:30.000Z,99083.19
2022-11-02T08:28:36.911Z,99088.09
2022-11-02T08:33:40.460Z,99091.91
2022-11-02T08:38:44.131Z,99067.31
2022-11-02T08:43:49.119Z,99047.72
2022-11-02T08:48:52.580Z,98993.94
2022-11-02T08:53:56.337Z,99071.53
2022-11-02T08:59:01.280Z,99073.88
2022-11-02T09:04:04.911Z,98902.28
2022-11-02T09:09:08.352Z,99015.19
2022-11-02T09:14:13.299Z,99005.91
2022-11-02T09:19:16.823Z,99011.31
2022-11-02T09:24:20.407Z,99011.84
2022-11-02T09:29:25.305Z,99059.19
2022-11-02T09:34:28.820Z,99062.22
2022-11-02T09:39:32.412Z,99024.91
2022-11-02T09:44:44.322Z,99084.41
2022-11-02T09:49:47.948Z,99063.47
2022-11-02T09:54:53.769Z,99025.94
2022-11-02T09:59:59.087Z,99019.31
2022-11-02T10:05:12.184Z,99043.06
2022-11-02T10:10:18.307Z,98924.44
2022-11-02T10:15:25.501Z,99046.94
2022-11-02T10:20:31.542Z,99048.94
2022-11-02T10:25:36.138Z,99016.91
2022-11-02T10:30:41.914Z,99012.06
2022-11-02T10:36:12.617Z,99036.50
2022-11-02T10:41:25.517Z,98958.94
2022-11-02T10:46:40.189Z,98898.53
2022-11-02T10:51:43.736Z,99028.19
2022-11-02T10:56:48.257Z,99000.16
2022-11-02T11:02:13.491Z,98776.69
2022-11-02T11:07:20.077Z,99010.72
2022-11-02T11:12:27.909Z,99016.66
2022-11-02T11:23:20.656Z,99011.00
2022-11-02T11:28:26.168Z,98987.25
2022-11-02T11:33:32.901Z,98986.38
2022-11-02T11:38:36.427Z,98962.75
2022-11-02T11:43:41.336Z,98996.97
2022-11-02T11:48:48.430Z,98964.00
2022-11-02T11:54:07.137Z,98836.88
2022-11-02T11:59:21.412Z,98975.16
2022-11-02T12:04:32.244Z,98981.38
2022-11-02T12:09:39.164Z,98985.09
2022-11-02T12:14:51.288Z,98979.75
2022-11-02T12:20:05.347Z,98969.50
2022-11-02T12:25:19.487Z,98965.81
2022-11-02T12:30:23.467Z,98960.38
2022-11-02T12:35:42.719Z,98968.97
2022-11-02T12:40:53.609Z,98849.97
2022-11-02T12:46:03.183Z,98938.34
2022-11-02T12:51:11.503Z,98938.06
2022-11-02T12:56:19.746Z,98965.88
2022-11-02T13:01:28.587Z,98938.28
2022-11-02T13:06:37.332Z,98941.00
2022-11-02T13:11:43.791Z,98901.13
2022-11-02T13:16:50.649Z,98954.06
2022-11-02T13:21:57.394Z,98977.31
2022-11-02T13:27:14.245Z,98993.22
2022-11-02T13:32:22.864Z,98980.50
2022-11-02T13:37:29.695Z,98912.50
2022-11-02T13:42:56.796Z,98927.50
2022-11-02T13:48:23.172Z,98973.53
2022-11-02T13:53:30.435Z,98971.44
2022-11-02T13:58:36.312Z,98881.41
2022-11-02T14:03:49.447Z,98796.81
2022-11-02T14:08:57.185Z,98983.69
2022-11-02T14:14:22.654Z,98979.41
2022-11-02T14:19:32.355Z,98888.94
2022-11-02T14:25:08.385Z,98985.88
2022-11-02T14:30:46.018Z,98984.94
2022-11-02T14:35:55.620Z,98964.03
2022-11-02T14:41:06.212Z,98960.16
2022-11-02T14:46:18.037Z,98975.63
2022-11-02T14:51:24.020Z,98924.22
2022-11-02T14:56:49.267Z,99004.63
2022-11-02T15:01:56.512Z,98925.75
2022-11-02T15:07:02.095Z,98950.63
2022-11-02T15:12:27.246Z,99029.19
2022-11-02T15:17:53.313Z,99030.88
2022-11-02T15:23:01.239Z,99034.38
2022-11-02T15:28:08.701Z,98977.88
2022-11-02T15:33:21.269Z,99063.41
2022-11-02T15:38:33.831Z,99030.97
2022-11-02T15:44:21.756Z,99053.59
2022-11-02T15:49:38.115Z,99066.50
2022-11-02T16:10:51.795Z,99083.53
2022-11-02T16:16:05.871Z,99081.34
2022-11-02T16:22:24.909Z,99092.28
2022-11-02T16:34:58.495Z,99067.53
2022-11-02T16:40:03.042Z,99098.22
2022-11-02T16:45:56.787Z,99109.19
2022-11-02T17:13:18.800Z,99135.44
2022-11-02T17:18:29.697Z,99044.16
2022-11-02T17:23:37.334Z,99136.16
2022-11-02T17:28:46.861Z,99144.44
2022-11-02T17:33:50.395Z,99139.16
2022-11-02T17:38:54.042Z,99112.47
2022-11-02T17:44:19.065Z,99135.88
2022-11-02T17:49:23.521Z,99062.88
2022-11-02T17:54:27.530Z,99140.94
2022-11-02T17:59:32.480Z,98907.41
2022-11-02T18:04:36.056Z,99138.47
2022-11-02T18:09:41.661Z,99057.25
2022-11-02T18:14:46.562Z,99142.47
2022-11-02T18:19:51.089Z,99073.34
2022-11-02T18:24:58.641Z,99139.72
2022-11-02T18:30:05.149Z,99000.31
2022-11-02T18:35:10.671Z,99143.75
2022-11-02T18:40:16.336Z,99154.25
2022-11-02T19:00:16.203Z,99122.41
2022-11-02T19:05:37.511Z,98905.03
2022-11-02T19:10:41.146Z,99181.22
2022-11-02T19:15:46.042Z,99059.13
2022-11-02T19:28:11.459Z,99203.31
2022-11-02T19:33:16.267Z,99203.88
2022-11-02T19:38:19.743Z,99208.75
2022-11-02T19:43:23.223Z,99209.91
2022-11-02T20:03:36.337Z,99199.91
2022-11-02T20:08:40.292Z,99063.91
2022-11-02T20:21:20.320Z,99218.19
2022-11-02T20:41:11.150Z,99191.78
2022-11-02T21:06:57.876Z,99233.72
2022-11-02T21:25:24.099Z,99262.91
2022-11-02T22:06:01.958Z,99191.88
